首页
METAR-TAF:

METAR-TAF

机场 :

巴克艾, 亞利桑那州, 美国

纬度: 33-25-14N, 经度: 112-41-10W, 海拔: 315米

当前天气观测

该预报发布于21分钟前的05:15 UTC
风速4节,风向
温度 31°C
湿度 38%
气压 1012 hPa
能見度: 16.1公里
天空无云

METAR: KBXK 180515Z AUTO 18004KT 10SM CLR 31/15 A2987 RMK A01

时间: 22:36 (05:36 UTC)


TAF: 丢失

超过4000个机场的气象观测和天气预报(METAR&TAF报告)。

可查询的气象台以黄色和红色小点在地图上表示。

将鼠标移到小点上方,可查看气象台名称。

然后点击查看天气观测和预报。

如需切换地图:点击带黑十字的绿色按钮放大地图;点击带横线的绿色按钮缩小地图;或者点击绿色箭头查看邻近地区的地图。


METAR-TAF: